createdAt,value
2023-01-17T00:02:20.166Z,6.93
2023-01-17T00:06:31.421Z,6.88
2023-01-17T00:10:26.948Z,6.10
2023-01-17T00:14:19.515Z,7.18
2023-01-17T00:18:12.219Z,7.32
2023-01-17T00:22:30.805Z,7.15
2023-01-17T00:26:23.927Z,6.13
2023-01-17T00:30:16.643Z,5.65
2023-01-17T00:34:09.166Z,5.40
2023-01-17T00:38:15.233Z,5.05
2023-01-17T00:42:07.976Z,4.95
2023-01-17T00:46:19.086Z,5.13
2023-01-17T00:50:30.538Z,5.43
2023-01-17T00:54:41.885Z,5.43
2023-01-17T00:58:53.364Z,5.65
2023-01-17T01:03:04.790Z,6.13
2023-01-17T01:07:16.023Z,6.38
2023-01-17T01:11:45.770Z,6.82
2023-01-17T01:15:57.142Z,7.43
2023-01-17T01:20:08.339Z,10.73
2023-01-17T01:24:20.033Z,12.32
2023-01-17T01:28:33.218Z,13.75
2023-01-17T01:32:44.237Z,14.52
2023-01-17T01:36:37.132Z,15.23
2023-01-17T01:40:29.867Z,13.02
2023-01-17T01:44:48.658Z,13.55
2023-01-17T01:48:47.974Z,14.38
2023-01-17T01:52:45.057Z,15.18
2023-01-17T01:56:38.942Z,14.75
2023-01-17T02:00:38.394Z,15.90
2023-01-17T02:04:31.202Z,15.80
2023-01-17T02:08:24.672Z,15.77
2023-01-17T02:12:22.073Z,14.30
2023-01-17T02:17:02.970Z,14.80
2023-01-17T02:21:08.276Z,13.40
2023-01-17T02:25:07.032Z,14.18
2023-01-17T02:29:37.210Z,13.18
2023-01-17T02:33:53.050Z,10.23
2023-01-17T02:38:17.060Z,12.00
2023-01-17T02:42:20.852Z,14.27
2023-01-17T02:46:13.649Z,13.00
2023-01-17T02:50:11.258Z,13.80
2023-01-17T02:54:28.749Z,14.40
2023-01-17T02:58:27.247Z,14.60
2023-01-17T03:02:48.392Z,14.07
2023-01-17T03:06:46.045Z,15.52
2023-01-17T03:10:39.977Z,14.98
2023-01-17T03:14:32.695Z,15.30
2023-01-17T03:18:25.297Z,16.00
2023-01-17T03:22:18.490Z,13.65
2023-01-17T03:26:11.203Z,15.38
2023-01-17T03:30:04.990Z,14.85
2023-01-17T03:33:57.726Z,13.00
2023-01-17T03:37:50.491Z,12.43
2023-01-17T03:41:43.204Z,11.75
2023-01-17T03:45:35.929Z,11.95
2023-01-17T03:49:29.419Z,11.48
2023-01-17T03:53:22.233Z,11.05
2023-01-17T03:57:15.899Z,11.60
2023-01-17T04:01:09.127Z,10.90
2023-01-17T04:05:02.158Z,11.02
2023-01-17T04:08:54.789Z,10.63
2023-01-17T04:12:47.751Z,6.43
2023-01-17T04:16:40.527Z,6.40
2023-01-17T04:20:35.960Z,5.60
2023-01-17T04:24:28.634Z,6.68
2023-01-17T04:28:21.259Z,5.97
2023-01-17T04:32:15.007Z,6.18
2023-01-17T04:36:07.895Z,6.70
2023-01-17T04:40:00.594Z,6.00
2023-01-17T04:43:53.267Z,5.93
2023-01-17T04:47:46.004Z,5.93
2023-01-17T04:51:38.604Z,6.13
2023-01-17T04:55:32.039Z,5.50
2023-01-17T04:59:24.725Z,6.20
2023-01-17T05:03:21.325Z,6.25
2023-01-17T05:07:13.946Z,6.72
2023-01-17T05:11:06.892Z,6.93
2023-01-17T05:14:59.500Z,6.68
2023-01-17T05:18:53.710Z,6.10
2023-01-17T05:22:55.674Z,6.82
2023-01-17T05:26:54.948Z,5.90
2023-01-17T05:30:47.541Z,6.30
2023-01-17T05:34:40.529Z,6.60
2023-01-17T05:38:33.098Z,6.75
2023-01-17T05:42:25.982Z,6.75
2023-01-17T05:46:18.744Z,6.93
2023-01-17T05:50:16.961Z,7.03
2023-01-17T05:54:09.762Z,7.50
2023-01-17T05:58:03.373Z,6.72
2023-01-17T06:01:56.315Z,6.65
2023-01-17T06:05:50.372Z,7.35
2023-01-17T06:09:42.930Z,7.30
2023-01-17T06:13:35.657Z,6.47
2023-01-17T06:17:28.399Z,7.63
2023-01-17T06:21:21.299Z,6.82
2023-01-17T06:25:14.102Z,5.82
2023-01-17T06:29:06.664Z,4.82
2023-01-17T06:32:59.416Z,4.35
2023-01-17T06:36:52.013Z,3.67
2023-01-17T06:40:44.728Z,3.17
2023-01-17T06:44:37.544Z,2.95
2023-01-17T06:48:30.205Z,2.60
2023-01-17T06:52:22.830Z,3.50
2023-01-17T06:56:15.463Z,3.30
2023-01-17T07:00:09.085Z,2.50
2023-01-17T07:04:02.204Z,3.20
2023-01-17T07:07:55.280Z,4.13
2023-01-17T07:11:49.456Z,3.60
2023-01-17T07:15:42.491Z,4.13
2023-01-17T07:19:35.137Z,5.43
2023-01-17T07:23:27.875Z,3.65
2023-01-17T07:27:20.385Z,3.40
2023-01-17T07:31:13.247Z,3.42
2023-01-17T07:35:06.935Z,4.32
2023-01-17T07:38:59.622Z,3.30
2023-01-17T07:42:52.448Z,3.45
2023-01-17T07:46:45.139Z,4.30
2023-01-17T07:50:38.707Z,2.28
2023-01-17T07:54:31.512Z,1.95
2023-01-17T07:58:24.327Z,1.52
2023-01-17T08:02:22.328Z,1.85
2023-01-17T08:06:22.383Z,2.00
2023-01-17T08:10:18.231Z,1.80
2023-01-17T08:14:11.004Z,2.25
2023-01-17T08:18:03.821Z,2.63
2023-01-17T08:21:56.735Z,2.72
2023-01-17T08:25:49.350Z,2.47
2023-01-17T08:29:48.442Z,2.33
2023-01-17T08:33:41.105Z,3.08
2023-01-17T08:37:33.975Z,5.38
2023-01-17T08:41:28.152Z,4.05
2023-01-17T08:45:20.772Z,2.33
2023-01-17T08:49:13.862Z,1.88
2023-01-17T08:53:07.086Z,2.00
2023-01-17T08:57:00.156Z,2.08
2023-01-17T09:00:52.811Z,1.83
2023-01-17T09:04:47.123Z,2.10
2023-01-17T09:08:40.624Z,3.60
2023-01-17T09:12:33.711Z,3.55
2023-01-17T09:16:26.525Z,3.33
2023-01-17T09:20:19.311Z,3.13
2023-01-17T09:24:12.486Z,3.10
2023-01-17T09:28:05.740Z,2.83
2023-01-17T09:31:58.623Z,2.58
2023-01-17T09:35:51.535Z,2.63
2023-01-17T09:39:44.444Z,3.17
2023-01-17T09:43:49.323Z,2.25
2023-01-17T09:47:47.241Z,2.38
2023-01-17T09:51:40.379Z,2.10
2023-01-17T09:56:12.451Z,2.30
2023-01-17T10:00:14.501Z,2.50
2023-01-17T10:04:25.552Z,2.63
2023-01-17T10:08:33.534Z,2.00
2023-01-17T10:12:56.610Z,2.50
2023-01-17T10:17:01.329Z,2.95
2023-01-17T10:21:04.731Z,2.53
2023-01-17T10:25:27.797Z,2.47
2023-01-17T10:29:21.723Z,2.35
2023-01-17T10:33:25.679Z,2.67
2023-01-17T10:37:26.549Z,3.50
2023-01-17T10:41:24.885Z,2.95
2023-01-17T10:45:29.220Z,6.68
2023-01-17T10:49:24.821Z,6.70
2023-01-17T10:53:39.550Z,5.88
2023-01-17T10:57:40.586Z,3.00
2023-01-17T11:01:33.731Z,2.75
2023-01-17T11:05:29.731Z,3.63
2023-01-17T11:09:38.213Z,2.92
2023-01-17T11:13:34.514Z,3.10
2023-01-17T11:17:28.871Z,3.67
2023-01-17T11:21:24.350Z,3.88
2023-01-17T11:25:22.664Z,6.20
2023-01-17T11:29:27.653Z,3.65
2023-01-17T11:33:56.010Z,4.25
2023-01-17T11:37:58.959Z,4.93
2023-01-17T11:41:52.995Z,3.83
2023-01-17T11:45:47.247Z,3.53
2023-01-17T11:49:45.885Z,3.38
2023-01-17T11:53:40.874Z,3.40
2023-01-17T11:57:36.343Z,3.70
2023-01-17T12:01:46.590Z,3.80
2023-01-17T12:06:15.864Z,4.85
2023-01-17T12:10:31.807Z,3.65
2023-01-17T12:14:39.625Z,3.10
2023-01-17T12:19:04.579Z,2.83
2023-01-17T12:23:23.515Z,2.80
2023-01-17T12:27:31.634Z,2.83
2023-01-17T12:35:38.897Z,2.50
2023-01-17T12:39:38.670Z,3.28
2023-01-17T12:43:37.494Z,2.90
2023-01-17T12:47:34.022Z,2.85
2023-01-17T12:51:41.337Z,2.80
2023-01-17T12:55:50.051Z,3.20
2023-01-17T13:00:07.819Z,2.97
2023-01-17T13:04:23.150Z,3.00
2023-01-17T13:08:25.665Z,3.03
2023-01-17T13:12:20.292Z,2.70
2023-01-17T13:16:18.337Z,2.85
2023-01-17T13:20:27.267Z,3.22
2023-01-17T13:24:31.735Z,2.22
2023-01-17T13:28:44.971Z,2.63
2023-01-17T13:33:23.405Z,3.05
2023-01-17T13:37:40.303Z,3.42
2023-01-17T13:41:43.522Z,4.22
2023-01-17T13:45:38.330Z,3.70
2023-01-17T13:49:34.348Z,3.35
2023-01-17T13:53:35.737Z,2.80
2023-01-17T13:57:33.170Z,2.97
2023-01-17T14:01:25.899Z,3.20
2023-01-17T14:05:31.451Z,15.52
2023-01-17T14:09:28.048Z,5.38
2023-01-17T14:13:39.104Z,4.00
2023-01-17T14:17:43.988Z,4.10
2023-01-17T14:21:37.033Z,3.95
2023-01-17T14:25:38.272Z,2.70
2023-01-17T14:29:44.364Z,4.78
2023-01-17T14:33:40.059Z,4.47
2023-01-17T14:37:32.834Z,4.10
2023-01-17T14:41:28.952Z,3.90
2023-01-17T14:45:28.435Z,3.88
2023-01-17T14:49:25.642Z,3.58
2023-01-17T14:53:20.014Z,3.78
2023-01-17T14:57:28.974Z,5.30
2023-01-17T15:01:22.337Z,4.00
2023-01-17T15:05:19.147Z,3.92
2023-01-17T15:09:20.859Z,4.68
2023-01-17T15:13:18.132Z,3.50
2023-01-17T15:17:19.021Z,3.75
2023-01-17T15:21:20.106Z,2.97
2023-01-17T15:25:14.777Z,3.28
2023-01-17T15:29:16.074Z,3.70
2023-01-17T15:33:17.060Z,5.55
2023-01-17T15:37:31.469Z,6.22
2023-01-17T15:41:26.704Z,3.90
2023-01-17T15:45:37.563Z,4.68
2023-01-17T15:49:31.328Z,5.30
2023-01-17T15:53:32.834Z,5.75
2023-01-17T15:57:28.568Z,4.45
2023-01-17T16:01:26.723Z,6.63
2023-01-17T16:05:23.280Z,8.68
2023-01-17T16:09:23.545Z,10.35
2023-01-17T16:13:16.219Z,9.25
2023-01-17T16:17:16.118Z,8.15
2023-01-17T16:21:35.319Z,5.47
2023-01-17T16:25:32.712Z,4.47
2023-01-17T16:29:32.509Z,4.22
2023-01-17T16:33:25.165Z,5.10
2023-01-17T16:37:19.729Z,4.18
2023-01-17T16:41:14.875Z,5.22
2023-01-17T16:45:07.955Z,6.13
2023-01-17T16:49:01.414Z,6.00
2023-01-17T16:52:56.462Z,6.38
2023-01-17T16:56:49.496Z,6.55
2023-01-17T17:00:42.443Z,6.15
2023-01-17T17:04:35.133Z,5.72
2023-01-17T17:08:29.722Z,5.43
2023-01-17T17:12:22.625Z,4.80
2023-01-17T17:16:16.562Z,5.60
2023-01-17T17:20:13.192Z,6.55
2023-01-17T17:24:06.565Z,5.83
2023-01-17T17:27:59.214Z,6.38
2023-01-17T17:31:52.336Z,5.90
2023-01-17T17:35:45.436Z,5.90
2023-01-17T17:39:39.164Z,5.72
2023-01-17T17:43:39.241Z,5.55
2023-01-17T17:47:32.423Z,5.15
2023-01-17T17:51:31.592Z,5.57
2023-01-17T17:55:24.939Z,5.65
2023-01-17T17:59:20.024Z,6.32
2023-01-17T18:03:13.676Z,6.32
2023-01-17T18:07:07.201Z,5.25
2023-01-17T18:11:03.420Z,5.68
2023-01-17T18:14:56.696Z,4.55
2023-01-17T18:18:53.830Z,6.95
2023-01-17T18:22:47.192Z,7.20
2023-01-17T18:26:46.640Z,7.35
2023-01-17T18:30:40.108Z,11.25
2023-01-17T18:34:36.290Z,5.63
2023-01-17T18:38:38.084Z,7.75
2023-01-17T18:42:31.492Z,3.65
2023-01-17T18:46:28.079Z,3.45
2023-01-17T18:50:22.327Z,3.53
2023-01-17T18:54:16.762Z,3.30
2023-01-17T18:58:10.895Z,3.70
2023-01-17T19:02:05.068Z,4.03
2023-01-17T19:06:02.148Z,3.70
2023-01-17T19:09:55.806Z,3.73
2023-01-17T19:13:50.756Z,3.20
2023-01-17T19:17:44.460Z,3.65
2023-01-17T19:21:38.931Z,2.47
2023-01-17T19:25:35.458Z,2.50
2023-01-17T19:29:29.771Z,2.40
2023-01-17T19:33:33.735Z,1.80
2023-01-17T19:37:28.588Z,2.15
2023-01-17T19:41:27.238Z,1.88
2023-01-17T19:45:21.138Z,1.95
2023-01-17T19:49:20.816Z,3.28
2023-01-17T19:53:17.456Z,5.07
2023-01-17T19:57:11.400Z,5.82
2023-01-17T20:01:24.248Z,3.30
2023-01-17T20:05:17.805Z,2.83
2023-01-17T20:09:11.977Z,3.30
2023-01-17T20:13:07.122Z,3.38
2023-01-17T20:17:01.892Z,5.93
2023-01-17T20:20:57.382Z,5.53
2023-01-17T20:28:52.467Z,4.00
2023-01-17T20:32:46.850Z,3.08
2023-01-17T20:36:45.537Z,3.90
2023-01-17T20:40:39.687Z,2.40
2023-01-17T20:44:34.585Z,2.42
2023-01-17T20:48:28.387Z,2.90
2023-01-17T20:52:21.526Z,1.77
2023-01-17T20:56:15.548Z,1.80
2023-01-17T21:00:09.735Z,2.60
2023-01-17T21:04:03.261Z,1.63
2023-01-17T21:07:56.361Z,1.55
2023-01-17T21:11:50.785Z,1.33
2023-01-17T21:15:44.847Z,1.52
2023-01-17T21:19:37.974Z,1.67
2023-01-17T21:23:30.884Z,1.30
2023-01-17T21:27:23.643Z,1.38
2023-01-17T21:31:26.517Z,1.45
2023-01-17T21:35:19.225Z,1.10
2023-01-17T21:39:15.941Z,1.10
2023-01-17T21:43:09.015Z,1.17
2023-01-17T21:47:01.830Z,1.10
2023-01-17T21:50:54.589Z,1.10
2023-01-17T21:55:05.519Z,1.10
2023-01-17T21:58:59.075Z,1.00
2023-01-17T22:02:52.083Z,1.20
2023-01-17T22:06:44.857Z,1.10
2023-01-17T22:10:47.112Z,1.10
2023-01-17T22:14:39.940Z,1.20
2023-01-17T22:18:38.442Z,1.10
2023-01-17T22:22:32.723Z,0.90
2023-01-17T22:26:27.962Z,0.90
2023-01-17T22:30:20.754Z,1.05
2023-01-17T22:34:14.424Z,0.77
2023-01-17T22:38:07.297Z,1.10
2023-01-17T22:41:59.987Z,1.33
2023-01-17T22:45:59.672Z,1.00
2023-01-17T22:49:52.703Z,1.00
2023-01-17T22:53:48.108Z,1.10
2023-01-17T22:57:44.036Z,1.00
2023-01-17T23:01:38.046Z,1.15
2023-01-17T23:05:30.787Z,1.10
2023-01-17T23:09:23.468Z,1.20
2023-01-17T23:13:16.571Z,1.25
2023-01-17T23:17:27.856Z,1.20
2023-01-17T23:21:20.861Z,1.10
2023-01-17T23:25:14.400Z,1.30
2023-01-17T23:29:07.118Z,1.20
2023-01-17T23:33:01.177Z,1.20
2023-01-17T23:36:53.848Z,1.00
2023-01-17T23:41:06.772Z,1.30
2023-01-17T23:44:59.711Z,1.10
2023-01-17T23:48:52.406Z,1.40
2023-01-17T23:52:45.068Z,1.10
2023-01-17T23:56:37.744Z,1.30
